sensor_id;sensor_type;location;lat;lon;timestamp;pressure;altitude;pressure_sealevel;temperature;humidity
29505;BME280;16452;54.174;12.092;2022-07-17T00:01:34;102263.00;;;18.71;69.36
29505;BME280;16452;54.174;12.092;2022-07-17T00:03:59;102259.31;;;18.73;69.58
29505;BME280;16452;54.174;12.092;2022-07-17T00:06:25;102251.09;;;18.78;70.09
29505;BME280;16452;54.174;12.092;2022-07-17T00:08:51;102255.06;;;18.71;71.42
29505;BME280;16452;54.174;12.092;2022-07-17T00:11:17;102259.19;;;19.03;69.59
29505;BME280;16452;54.174;12.092;2022-07-17T00:13:42;102257.25;;;18.64;70.82
29505;BME280;16452;54.174;12.092;2022-07-17T00:16:08;102252.91;;;18.77;69.35
29505;BME280;16452;54.174;12.092;2022-07-17T00:18:34;102256.03;;;19.11;67.94
29505;BME280;16452;54.174;12.092;2022-07-17T00:21:00;102250.88;;;18.95;67.43
29505;BME280;16452;54.174;12.092;2022-07-17T00:23:25;102254.00;;;18.87;67.10
29505;BME280;16452;54.174;12.092;2022-07-17T00:25:51;102257.50;;;18.45;68.26
29505;BME280;16452;54.174;12.092;2022-07-17T00:28:17;102255.03;;;18.99;67.19
29505;BME280;16452;54.174;12.092;2022-07-17T00:30:43;102249.78;;;18.85;68.96
29505;BME280;16452;54.174;12.092;2022-07-17T00:33:08;102247.28;;;18.69;68.69
29505;BME280;16452;54.174;12.092;2022-07-17T00:35:34;102245.81;;;18.92;67.78
29505;BME280;16452;54.174;12.092;2022-07-17T00:38:00;102248.03;;;19.12;69.82
29505;BME280;16452;54.174;12.092;2022-07-17T00:40:26;102246.38;;;18.97;69.70
29505;BME280;16452;54.174;12.092;2022-07-17T00:42:52;102236.28;;;19.16;68.88
29505;BME280;16452;54.174;12.092;2022-07-17T00:45:18;102234.19;;;18.95;67.89
29505;BME280;16452;54.174;12.092;2022-07-17T00:48:06;102242.81;;;19.25;67.68
29505;BME280;16452;54.174;12.092;2022-07-17T00:50:40;102234.72;;;18.73;68.34
29505;BME280;16452;54.174;12.092;2022-07-17T00:53:07;102237.91;;;18.92;68.96
29505;BME280;16452;54.174;12.092;2022-07-17T00:55:33;102234.06;;;18.69;67.16
29505;BME280;16452;54.174;12.092;2022-07-17T00:58:04;102229.31;;;18.88;67.30
29505;BME280;16452;54.174;12.092;2022-07-17T01:00:30;102232.03;;;18.87;67.99
29505;BME280;16452;54.174;12.092;2022-07-17T01:02:56;102230.66;;;18.67;69.42
29505;BME280;16452;54.174;12.092;2022-07-17T01:05:23;102240.84;;;18.73;69.18
29505;BME280;16452;54.174;12.092;2022-07-17T01:07:50;102241.25;;;18.94;68.38
29505;BME280;16452;54.174;12.092;2022-07-17T01:10:17;102243.47;;;18.73;69.70
29505;BME280;16452;54.174;12.092;2022-07-17T01:12:45;102238.13;;;18.75;70.23
29505;BME280;16452;54.174;12.092;2022-07-17T01:15:12;102228.97;;;19.07;68.61
29505;BME280;16452;54.174;12.092;2022-07-17T01:17:38;102232.84;;;18.75;69.82
29505;BME280;16452;54.174;12.092;2022-07-17T01:20:08;102224.22;;;18.85;70.74
29505;BME280;16452;54.174;12.092;2022-07-17T01:22:43;102229.28;;;19.03;70.49
29505;BME280;16452;54.174;12.092;2022-07-17T01:25:10;102225.28;;;18.69;72.02
29505;BME280;16452;54.174;12.092;2022-07-17T01:27:36;102229.91;;;18.79;71.14
29505;BME280;16452;54.174;12.092;2022-07-17T01:30:03;102232.47;;;19.08;71.60
29505;BME280;16452;54.174;12.092;2022-07-17T01:32:39;102238.19;;;18.73;73.75
29505;BME280;16452;54.174;12.092;2022-07-17T01:35:07;102231.53;;;19.09;72.26
29505;BME280;16452;54.174;12.092;2022-07-17T01:37:33;102244.34;;;19.15;71.40
29505;BME280;16452;54.174;12.092;2022-07-17T01:40:00;102234.94;;;19.38;69.88
29505;BME280;16452;54.174;12.092;2022-07-17T01:42:29;102241.69;;;19.42;68.58
29505;BME280;16452;54.174;12.092;2022-07-17T01:44:57;102239.91;;;19.42;68.17
29505;BME280;16452;54.174;12.092;2022-07-17T01:47:23;102253.13;;;19.42;67.58
29505;BME280;16452;54.174;12.092;2022-07-17T01:49:53;102257.19;;;19.48;66.85
29505;BME280;16452;54.174;12.092;2022-07-17T01:52:19;102247.16;;;19.53;67.05
29505;BME280;16452;54.174;12.092;2022-07-17T01:54:46;102252.44;;;19.26;67.40
29505;BME280;16452;54.174;12.092;2022-07-17T01:57:12;102259.03;;;19.19;69.26
29505;BME280;16452;54.174;12.092;2022-07-17T01:59:39;102253.56;;;19.22;69.77
29505;BME280;16452;54.174;12.092;2022-07-17T02:02:06;102256.84;;;19.66;67.97
29505;BME280;16452;54.174;12.092;2022-07-17T02:04:36;102256.63;;;19.69;66.02
29505;BME280;16452;54.174;12.092;2022-07-17T02:07:04;102255.22;;;19.64;65.76
29505;BME280;16452;54.174;12.092;2022-07-17T02:09:30;102250.28;;;19.45;65.95
29505;BME280;16452;54.174;12.092;2022-07-17T02:11:56;102250.78;;;19.64;66.58
29505;BME280;16452;54.174;12.092;2022-07-17T02:14:23;102248.16;;;19.38;67.25
29505;BME280;16452;54.174;12.092;2022-07-17T02:16:49;102252.47;;;19.12;67.37
29505;BME280;16452;54.174;12.092;2022-07-17T02:19:15;102246.31;;;19.11;67.46
29505;BME280;16452;54.174;12.092;2022-07-17T02:21:41;102252.28;;;19.15;67.58
29505;BME280;16452;54.174;12.092;2022-07-17T02:24:06;102246.13;;;19.14;67.05
29505;BME280;16452;54.174;12.092;2022-07-17T02:26:32;102240.41;;;19.08;66.41
29505;BME280;16452;54.174;12.092;2022-07-17T02:28:58;102243.34;;;19.03;67.30
29505;BME280;16452;54.174;12.092;2022-07-17T02:31:24;102244.22;;;18.90;69.78
29505;BME280;16452;54.174;12.092;2022-07-17T02:33:50;102242.56;;;19.15;68.77
29505;BME280;16452;54.174;12.092;2022-07-17T02:36:16;102252.22;;;18.88;69.61
29505;BME280;16452;54.174;12.092;2022-07-17T02:38:41;102248.84;;;18.86;70.00
29505;BME280;16452;54.174;12.092;2022-07-17T02:41:07;102243.81;;;18.81;71.13
29505;BME280;16452;54.174;12.092;2022-07-17T02:43:33;102257.88;;;18.82;70.58
29505;BME280;16452;54.174;12.092;2022-07-17T02:46:00;102261.56;;;18.65;71.44
29505;BME280;16452;54.174;12.092;2022-07-17T02:48:26;102255.06;;;18.71;70.66
29505;BME280;16452;54.174;12.092;2022-07-17T02:50:52;102247.69;;;18.76;70.06
29505;BME280;16452;54.174;12.092;2022-07-17T02:53:18;102253.09;;;18.74;70.00
29505;BME280;16452;54.174;12.092;2022-07-17T02:55:43;102258.00;;;18.80;69.78
29505;BME280;16452;54.174;12.092;2022-07-17T02:58:09;102253.66;;;18.65;70.17
29505;BME280;16452;54.174;12.092;2022-07-17T03:00:35;102264.56;;;18.87;70.14
29505;BME280;16452;54.174;12.092;2022-07-17T03:03:01;102264.59;;;18.73;70.79
29505;BME280;16452;54.174;12.092;2022-07-17T03:05:27;102269.88;;;18.73;71.89
29505;BME280;16452;54.174;12.092;2022-07-17T03:07:52;102273.91;;;18.51;71.91
29505;BME280;16452;54.174;12.092;2022-07-17T03:10:18;102269.66;;;18.48;72.65
29505;BME280;16452;54.174;12.092;2022-07-17T03:12:44;102279.78;;;18.56;73.20
29505;BME280;16452;54.174;12.092;2022-07-17T03:15:10;102276.50;;;18.80;71.11
29505;BME280;16452;54.174;12.092;2022-07-17T03:17:36;102281.56;;;18.55;70.85
29505;BME280;16452;54.174;12.092;2022-07-17T03:20:03;102285.13;;;18.54;71.54
29505;BME280;16452;54.174;12.092;2022-07-17T03:22:29;102284.47;;;18.51;72.97
29505;BME280;16452;54.174;12.092;2022-07-17T03:24:54;102286.38;;;18.77;71.96
29505;BME280;16452;54.174;12.092;2022-07-17T03:27:23;102290.13;;;18.87;70.41
29505;BME280;16452;54.174;12.092;2022-07-17T03:29:49;102298.63;;;18.78;70.06
29505;BME280;16452;54.174;12.092;2022-07-17T03:32:14;102291.63;;;19.05;69.40
29505;BME280;16452;54.174;12.092;2022-07-17T03:34:40;102292.38;;;19.07;70.84
29505;BME280;16452;54.174;12.092;2022-07-17T03:37:06;102297.13;;;19.02;69.42
29505;BME280;16452;54.174;12.092;2022-07-17T03:39:32;102296.34;;;19.14;68.44
29505;BME280;16452;54.174;12.092;2022-07-17T03:41:57;102297.28;;;19.13;69.89
29505;BME280;16452;54.174;12.092;2022-07-17T03:44:23;102292.22;;;18.96;71.76
29505;BME280;16452;54.174;12.092;2022-07-17T03:46:49;102308.00;;;18.69;71.56
29505;BME280;16452;54.174;12.092;2022-07-17T03:49:15;102294.41;;;18.61;71.20
29505;BME280;16452;54.174;12.092;2022-07-17T03:51:41;102299.50;;;18.78;71.39
29505;BME280;16452;54.174;12.092;2022-07-17T03:54:07;102298.16;;;18.71;70.21
29505;BME280;16452;54.174;12.092;2022-07-17T03:56:33;102293.63;;;18.59;71.47
29505;BME280;16452;54.174;12.092;2022-07-17T03:58:59;102295.06;;;18.65;70.49
29505;BME280;16452;54.174;12.092;2022-07-17T04:01:25;102299.13;;;18.56;71.68
29505;BME280;16452;54.174;12.092;2022-07-17T04:03:50;102302.97;;;18.65;71.26
29505;BME280;16452;54.174;12.092;2022-07-17T04:06:16;102297.59;;;18.66;71.53
29505;BME280;16452;54.174;12.092;2022-07-17T04:08:42;102294.69;;;18.85;71.19
29505;BME280;16452;54.174;12.092;2022-07-17T04:11:08;102300.91;;;18.84;71.61
29505;BME280;16452;54.174;12.092;2022-07-17T04:13:40;102283.22;;;19.40;70.66
29505;BME280;16452;54.174;12.092;2022-07-17T04:16:07;102285.06;;;18.84;73.42
29505;BME280;16452;54.174;12.092;2022-07-17T04:18:35;102280.34;;;18.89;71.17
29505;BME280;16452;54.174;12.092;2022-07-17T04:21:04;102281.72;;;19.09;70.19
29505;BME280;16452;54.174;12.092;2022-07-17T04:23:30;102276.56;;;18.79;70.52
29505;BME280;16452;54.174;12.092;2022-07-17T04:25:57;102297.34;;;18.57;70.94
29505;BME280;16452;54.174;12.092;2022-07-17T04:28:23;102285.63;;;18.89;69.18
29505;BME280;16452;54.174;12.092;2022-07-17T04:30:49;102283.91;;;18.88;68.12
29505;BME280;16452;54.174;12.092;2022-07-17T04:33:15;102285.44;;;18.92;68.96
29505;BME280;16452;54.174;12.092;2022-07-17T04:35:41;102285.91;;;18.84;69.79
29505;BME280;16452;54.174;12.092;2022-07-17T04:38:08;102287.75;;;19.11;70.60
29505;BME280;16452;54.174;12.092;2022-07-17T04:40:36;102298.38;;;18.68;71.29
29505;BME280;16452;54.174;12.092;2022-07-17T04:43:02;102297.88;;;19.04;70.78
29505;BME280;16452;54.174;12.092;2022-07-17T04:45:28;102301.94;;;19.10;71.00
29505;BME280;16452;54.174;12.092;2022-07-17T04:47:54;102303.16;;;19.04;73.34
29505;BME280;16452;54.174;12.092;2022-07-17T04:50:20;102308.34;;;18.92;71.47
29505;BME280;16452;54.174;12.092;2022-07-17T04:52:46;102305.94;;;19.29;69.00
29505;BME280;16452;54.174;12.092;2022-07-17T04:55:12;102306.31;;;19.23;70.83
29505;BME280;16452;54.174;12.092;2022-07-17T04:57:38;102311.69;;;18.81;70.82
29505;BME280;16452;54.174;12.092;2022-07-17T05:00:06;102311.75;;;19.35;71.59
29505;BME280;16452;54.174;12.092;2022-07-17T05:02:33;102313.22;;;19.12;72.03
29505;BME280;16452;54.174;12.092;2022-07-17T05:04:59;102320.13;;;19.14;71.44
29505;BME280;16452;54.174;12.092;2022-07-17T05:07:24;102316.00;;;19.37;70.86
29505;BME280;16452;54.174;12.092;2022-07-17T05:09:50;102321.00;;;19.42;70.44
29505;BME280;16452;54.174;12.092;2022-07-17T05:12:16;102311.03;;;19.18;71.73
29505;BME280;16452;54.174;12.092;2022-07-17T05:14:42;102321.03;;;19.68;70.68
29505;BME280;16452;54.174;12.092;2022-07-17T05:17:08;102323.56;;;19.29;71.14
29505;BME280;16452;54.174;12.092;2022-07-17T05:19:34;102320.28;;;19.66;69.93
29505;BME280;16452;54.174;12.092;2022-07-17T05:22:00;102316.50;;;19.29;70.74
29505;BME280;16452;54.174;12.092;2022-07-17T05:24:27;102323.84;;;19.80;69.29
29505;BME280;16452;54.174;12.092;2022-07-17T05:26:53;102326.50;;;19.92;68.64
29505;BME280;16452;54.174;12.092;2022-07-17T05:29:19;102321.50;;;20.15;68.24
29505;BME280;16452;54.174;12.092;2022-07-17T05:31:45;102323.72;;;19.81;69.62
29505;BME280;16452;54.174;12.092;2022-07-17T05:34:11;102316.84;;;20.18;69.80
29505;BME280;16452;54.174;12.092;2022-07-17T05:36:37;102308.31;;;20.53;68.95
29505;BME280;16452;54.174;12.092;2022-07-17T05:39:03;102318.25;;;20.62;69.06
29505;BME280;16452;54.174;12.092;2022-07-17T05:41:29;102311.19;;;20.49;70.45
29505;BME280;16452;54.174;12.092;2022-07-17T05:43:54;102311.31;;;21.10;69.39
29505;BME280;16452;54.174;12.092;2022-07-17T05:46:20;102316.88;;;20.69;69.19
29505;BME280;16452;54.174;12.092;2022-07-17T05:48:46;102312.22;;;20.72;67.75
29505;BME280;16452;54.174;12.092;2022-07-17T05:51:12;102315.50;;;20.50;68.59
29505;BME280;16452;54.174;12.092;2022-07-17T05:53:37;102330.06;;;20.18;70.73
29505;BME280;16452;54.174;12.092;2022-07-17T05:56:03;102334.16;;;20.09;71.35
29505;BME280;16452;54.174;12.092;2022-07-17T05:58:29;102331.00;;;20.17;71.17
29505;BME280;16452;54.174;12.092;2022-07-17T06:00:58;102333.88;;;20.27;71.44
29505;BME280;16452;54.174;12.092;2022-07-17T06:03:23;102335.69;;;20.14;70.88
29505;BME280;16452;54.174;12.092;2022-07-17T06:05:49;102344.66;;;20.38;70.78
29505;BME280;16452;54.174;12.092;2022-07-17T06:08:15;102349.19;;;20.36;69.63
29505;BME280;16452;54.174;12.092;2022-07-17T06:10:41;102339.59;;;20.21;71.30
29505;BME280;16452;54.174;12.092;2022-07-17T06:13:06;102347.88;;;20.29;70.84
29505;BME280;16452;54.174;12.092;2022-07-17T06:15:32;102352.00;;;20.20;71.02
29505;BME280;16452;54.174;12.092;2022-07-17T06:18:03;102349.00;;;20.77;69.65
29505;BME280;16452;54.174;12.092;2022-07-17T06:20:30;102352.34;;;20.41;70.16
29505;BME280;16452;54.174;12.092;2022-07-17T06:22:56;102357.47;;;20.44;70.67
29505;BME280;16452;54.174;12.092;2022-07-17T06:25:23;102355.22;;;20.50;70.01
29505;BME280;16452;54.174;12.092;2022-07-17T06:27:49;102352.41;;;20.27;71.35
29505;BME280;16452;54.174;12.092;2022-07-17T06:30:15;102358.09;;;20.60;70.39
29505;BME280;16452;54.174;12.092;2022-07-17T06:32:41;102362.16;;;20.26;71.53
29505;BME280;16452;54.174;12.092;2022-07-17T06:35:08;102357.78;;;20.52;70.90
29505;BME280;16452;54.174;12.092;2022-07-17T06:37:34;102359.78;;;20.36;70.42
29505;BME280;16452;54.174;12.092;2022-07-17T06:40:01;102356.19;;;20.49;70.48
29505;BME280;16452;54.174;12.092;2022-07-17T06:42:26;102357.47;;;20.17;71.85
29505;BME280;16452;54.174;12.092;2022-07-17T06:44:52;102365.06;;;20.36;70.22
29505;BME280;16452;54.174;12.092;2022-07-17T06:47:18;102358.78;;;20.24;70.65
29505;BME280;16452;54.174;12.092;2022-07-17T06:49:44;102366.69;;;20.12;71.52
29505;BME280;16452;54.174;12.092;2022-07-17T06:52:10;102351.25;;;20.18;70.01
29505;BME280;16452;54.174;12.092;2022-07-17T06:54:36;102351.72;;;20.50;68.24
29505;BME280;16452;54.174;12.092;2022-07-17T06:57:02;102364.66;;;20.55;70.06
29505;BME280;16452;54.174;12.092;2022-07-17T06:59:28;102360.53;;;20.38;69.82
29505;BME280;16452;54.174;12.092;2022-07-17T07:01:54;102362.75;;;20.44;68.95
29505;BME280;16452;54.174;12.092;2022-07-17T07:04:19;102365.25;;;19.93;72.37
29505;BME280;16452;54.174;12.092;2022-07-17T07:06:45;102363.63;;;20.18;71.17
29505;BME280;16452;54.174;12.092;2022-07-17T07:09:11;102363.00;;;20.27;70.16
29505;BME280;16452;54.174;12.092;2022-07-17T07:11:37;102358.41;;;20.43;70.23
29505;BME280;16452;54.174;12.092;2022-07-17T07:14:04;102360.94;;;20.32;71.96
29505;BME280;16452;54.174;12.092;2022-07-17T07:16:30;102363.06;;;20.52;73.13
29505;BME280;16452;54.174;12.092;2022-07-17T07:18:56;102367.97;;;20.83;72.42
29505;BME280;16452;54.174;12.092;2022-07-17T07:21:21;102361.81;;;20.70;70.09
29505;BME280;16452;54.174;12.092;2022-07-17T07:23:48;102369.72;;;20.32;72.05
29505;BME280;16452;54.174;12.092;2022-07-17T07:26:14;102364.97;;;20.63;70.98
29505;BME280;16452;54.174;12.092;2022-07-17T07:28:40;102369.31;;;20.51;72.44
29505;BME280;16452;54.174;12.092;2022-07-17T07:31:06;102373.22;;;20.45;73.22
29505;BME280;16452;54.174;12.092;2022-07-17T07:33:32;102369.97;;;20.28;72.85
29505;BME280;16452;54.174;12.092;2022-07-17T07:35:58;102371.22;;;20.36;73.14
29505;BME280;16452;54.174;12.092;2022-07-17T07:38:24;102372.72;;;20.78;73.02
29505;BME280;16452;54.174;12.092;2022-07-17T07:40:50;102378.47;;;20.72;73.70
29505;BME280;16452;54.174;12.092;2022-07-17T07:43:15;102379.50;;;20.70;73.05
29505;BME280;16452;54.174;12.092;2022-07-17T07:45:41;102381.53;;;20.79;72.85
29505;BME280;16452;54.174;12.092;2022-07-17T07:48:07;102385.13;;;20.90;73.11
29505;BME280;16452;54.174;12.092;2022-07-17T07:50:33;102386.50;;;20.83;71.73
29505;BME280;16452;54.174;12.092;2022-07-17T07:52:58;102379.06;;;20.63;71.86
29505;BME280;16452;54.174;12.092;2022-07-17T07:55:24;102391.44;;;20.37;71.70
29505;BME280;16452;54.174;12.092;2022-07-17T07:58:05;102396.34;;;20.81;70.90
29505;BME280;16452;54.174;12.092;2022-07-17T08:00:31;102400.66;;;20.57;73.64
29505;BME280;16452;54.174;12.092;2022-07-17T08:02:57;102401.31;;;20.86;73.32
29505;BME280;16452;54.174;12.092;2022-07-17T08:05:22;102410.44;;;20.95;73.40
29505;BME280;16452;54.174;12.092;2022-07-17T08:07:48;102406.13;;;21.19;72.80
29505;BME280;16452;54.174;12.092;2022-07-17T08:10:14;102405.69;;;21.00;72.54
29505;BME280;16452;54.174;12.092;2022-07-17T08:12:39;102395.38;;;21.20;72.01
29505;BME280;16452;54.174;12.092;2022-07-17T08:15:06;102388.47;;;21.43;72.02
29505;BME280;16452;54.174;12.092;2022-07-17T08:17:33;102390.91;;;21.46;71.67
29505;BME280;16452;54.174;12.092;2022-07-17T08:19:59;102391.78;;;21.70;71.23
29505;BME280;16452;54.174;12.092;2022-07-17T08:22:24;102384.56;;;21.96;70.60
29505;BME280;16452;54.174;12.092;2022-07-17T08:24:50;102398.69;;;21.97;70.01
29505;BME280;16452;54.174;12.092;2022-07-17T08:27:16;102398.97;;;22.05;71.05
29505;BME280;16452;54.174;12.092;2022-07-17T08:29:42;102397.97;;;21.95;70.35
29505;BME280;16452;54.174;12.092;2022-07-17T08:32:08;102393.47;;;22.19;69.20
29505;BME280;16452;54.174;12.092;2022-07-17T08:34:33;102409.78;;;22.26;68.70
29505;BME280;16452;54.174;12.092;2022-07-17T08:36:59;102408.19;;;22.47;67.13
29505;BME280;16452;54.174;12.092;2022-07-17T08:39:25;102406.06;;;21.81;67.76
29505;BME280;16452;54.174;12.092;2022-07-17T08:41:51;102410.69;;;22.37;68.87
29505;BME280;16452;54.174;12.092;2022-07-17T08:44:17;102409.69;;;22.03;69.54
29505;BME280;16452;54.174;12.092;2022-07-17T08:46:43;102421.88;;;21.82;69.80
29505;BME280;16452;54.174;12.092;2022-07-17T08:49:10;102419.78;;;22.46;68.59
29505;BME280;16452;54.174;12.092;2022-07-17T08:51:37;102416.09;;;22.71;66.47
29505;BME280;16452;54.174;12.092;2022-07-17T08:54:03;102424.88;;;22.60;64.40
29505;BME280;16452;54.174;12.092;2022-07-17T08:56:29;102417.69;;;22.84;64.08
29505;BME280;16452;54.174;12.092;2022-07-17T08:58:55;102419.06;;;22.55;63.69
29505;BME280;16452;54.174;12.092;2022-07-17T09:01:21;102423.69;;;22.64;64.42
29505;BME280;16452;54.174;12.092;2022-07-17T09:04:04;102422.56;;;23.13;62.07
29505;BME280;16452;54.174;12.092;2022-07-17T09:06:35;102426.31;;;23.21;61.21
29505;BME280;16452;54.174;12.092;2022-07-17T09:09:08;102425.72;;;23.40;62.62
29505;BME280;16452;54.174;12.092;2022-07-17T09:11:46;102436.09;;;23.21;63.09
29505;BME280;16452;54.174;12.092;2022-07-17T09:14:13;102433.34;;;23.33;63.38
29505;BME280;16452;54.174;12.092;2022-07-17T09:16:52;102430.78;;;23.21;64.50
29505;BME280;16452;54.174;12.092;2022-07-17T09:19:40;102435.00;;;22.90;64.97
29505;BME280;16452;54.174;12.092;2022-07-17T09:22:16;102447.44;;;22.89;66.47
29505;BME280;16452;54.174;12.092;2022-07-17T09:24:56;102448.19;;;23.36;64.02
29505;BME280;16452;54.174;12.092;2022-07-17T09:29:57;102444.34;;;23.18;61.95
29505;BME280;16452;54.174;12.092;2022-07-17T09:32:27;102450.41;;;23.64;62.69
29505;BME280;16452;54.174;12.092;2022-07-17T09:34:55;102450.13;;;23.67;64.50
29505;BME280;16452;54.174;12.092;2022-07-17T09:37:23;102453.53;;;23.69;64.41
29505;BME280;16452;54.174;12.092;2022-07-17T09:39:49;102449.03;;;23.59;64.26
29505;BME280;16452;54.174;12.092;2022-07-17T09:42:31;102447.69;;;23.87;63.48
29505;BME280;16452;54.174;12.092;2022-07-17T09:47:31;102460.75;;;23.79;64.45
29505;BME280;16452;54.174;12.092;2022-07-17T09:49:59;102459.22;;;23.76;65.47
29505;BME280;16452;54.174;12.092;2022-07-17T09:52:29;102462.56;;;23.89;65.22
29505;BME280;16452;54.174;12.092;2022-07-17T09:54:57;102464.50;;;23.87;61.71
29505;BME280;16452;54.174;12.092;2022-07-17T09:57:31;102462.66;;;23.99;60.04
29505;BME280;16452;54.174;12.092;2022-07-17T10:00:05;102461.59;;;23.90;60.98
29505;BME280;16452;54.174;12.092;2022-07-17T10:02:32;102462.78;;;23.97;62.21
29505;BME280;16452;54.174;12.092;2022-07-17T10:04:58;102464.84;;;23.83;62.56
29505;BME280;16452;54.174;12.092;2022-07-17T10:07:24;102463.75;;;24.39;62.09
29505;BME280;16452;54.174;12.092;2022-07-17T10:09:51;102458.50;;;24.06;61.99
29505;BME280;16452;54.174;12.092;2022-07-17T10:12:18;102467.25;;;23.97;62.91
29505;BME280;16452;54.174;12.092;2022-07-17T10:14:47;102469.00;;;23.87;62.79
29505;BME280;16452;54.174;12.092;2022-07-17T10:17:18;102462.91;;;23.96;63.50
29505;BME280;16452;54.174;12.092;2022-07-17T10:19:52;102472.72;;;23.84;61.83
29505;BME280;16452;54.174;12.092;2022-07-17T10:22:19;102460.16;;;23.86;60.88
29505;BME280;16452;54.174;12.092;2022-07-17T10:27:26;102469.97;;;24.17;62.28
29505;BME280;16452;54.174;12.092;2022-07-17T10:30:08;102462.47;;;24.11;61.14
29505;BME280;16452;54.174;12.092;2022-07-17T10:32:36;102469.09;;;23.85;61.49
29505;BME280;16452;54.174;12.092;2022-07-17T10:35:10;102467.34;;;24.06;61.27
29505;BME280;16452;54.174;12.092;2022-07-17T10:40:22;102469.34;;;23.93;62.47
29505;BME280;16452;54.174;12.092;2022-07-17T10:42:58;102467.72;;;24.02;61.09
29505;BME280;16452;54.174;12.092;2022-07-17T10:45:37;102466.91;;;23.90;62.01
29505;BME280;16452;54.174;12.092;2022-07-17T10:48:12;102461.91;;;24.08;62.50
29505;BME280;16452;54.174;12.092;2022-07-17T10:50:46;102463.22;;;24.13;61.35
29505;BME280;16452;54.174;12.092;2022-07-17T10:53:25;102463.44;;;23.67;62.36
29505;BME280;16452;54.174;12.092;2022-07-17T10:55:55;102463.75;;;23.96;63.61
29505;BME280;16452;54.174;12.092;2022-07-17T10:58:28;102456.56;;;24.08;61.52
29505;BME280;16452;54.174;12.092;2022-07-17T11:01:13;102473.34;;;23.88;61.74
29505;BME280;16452;54.174;12.092;2022-07-17T11:03:44;102458.06;;;23.90;61.19
29505;BME280;16452;54.174;12.092;2022-07-17T11:06:31;102459.75;;;24.02;58.42
29505;BME280;16452;54.174;12.092;2022-07-17T11:09:00;102458.34;;;23.87;59.41
29505;BME280;16452;54.174;12.092;2022-07-17T11:12:04;102466.31;;;23.87;59.93
29505;BME280;16452;54.174;12.092;2022-07-17T11:14:30;102476.50;;;23.82;59.58
29505;BME280;16452;54.174;12.092;2022-07-17T11:17:00;102466.50;;;24.06;59.44
29505;BME280;16452;54.174;12.092;2022-07-17T11:22:00;102477.50;;;24.24;57.62
29505;BME280;16452;54.174;12.092;2022-07-17T11:24:44;102485.94;;;24.40;58.15
29505;BME280;16452;54.174;12.092;2022-07-17T11:27:11;102482.97;;;24.22;55.96
29505;BME280;16452;54.174;12.092;2022-07-17T11:29:40;102481.91;;;23.91;57.44
29505;BME280;16452;54.174;12.092;2022-07-17T11:32:06;102483.09;;;24.09;57.09
29505;BME280;16452;54.174;12.092;2022-07-17T11:34:32;102473.63;;;24.17;57.43
29505;BME280;16452;54.174;12.092;2022-07-17T11:37:04;102476.78;;;24.22;57.83
29505;BME280;16452;54.174;12.092;2022-07-17T11:39:48;102469.31;;;24.36;59.32
29505;BME280;16452;54.174;12.092;2022-07-17T11:42:23;102466.72;;;24.57;59.84
29505;BME280;16452;54.174;12.092;2022-07-17T11:44:51;102461.13;;;24.81;57.78
29505;BME280;16452;54.174;12.092;2022-07-17T11:47:26;102465.09;;;24.86;56.57
29505;BME280;16452;54.174;12.092;2022-07-17T11:50:04;102460.50;;;24.36;56.91
29505;BME280;16452;54.174;12.092;2022-07-17T11:52:50;102465.41;;;24.72;58.55
29505;BME280;16452;54.174;12.092;2022-07-17T11:55:17;102457.41;;;24.72;55.87
29505;BME280;16452;54.174;12.092;2022-07-17T11:57:49;102460.25;;;24.60;56.79
29505;BME280;16452;54.174;12.092;2022-07-17T12:00:19;102468.75;;;24.53;57.22
29505;BME280;16452;54.174;12.092;2022-07-17T12:02:45;102465.78;;;24.68;56.24
29505;BME280;16452;54.174;12.092;2022-07-17T12:05:11;102460.34;;;24.69;58.93
29505;BME280;16452;54.174;12.092;2022-07-17T12:07:46;102465.06;;;24.66;56.09
29505;BME280;16452;54.174;12.092;2022-07-17T12:10:18;102462.25;;;24.88;55.19
29505;BME280;16452;54.174;12.092;2022-07-17T12:13:00;102464.56;;;24.51;55.98
29505;BME280;16452;54.174;12.092;2022-07-17T12:15:38;102465.72;;;24.58;56.41
29505;BME280;16452;54.174;12.092;2022-07-17T12:18:06;102458.22;;;24.31;57.50
29505;BME280;16452;54.174;12.092;2022-07-17T12:20:44;102454.06;;;24.59;55.73
29505;BME280;16452;54.174;12.092;2022-07-17T12:23:37;102460.34;;;24.69;58.11
29505;BME280;16452;54.174;12.092;2022-07-17T12:26:15;102453.44;;;24.46;58.70
29505;BME280;16452;54.174;12.092;2022-07-17T12:28:43;102449.94;;;24.45;58.22
29505;BME280;16452;54.174;12.092;2022-07-17T12:31:10;102455.13;;;24.68;58.73
29505;BME280;16452;54.174;12.092;2022-07-17T12:33:36;102450.84;;;24.55;60.21
29505;BME280;16452;54.174;12.092;2022-07-17T12:36:02;102448.75;;;24.80;58.74
29505;BME280;16452;54.174;12.092;2022-07-17T12:38:27;102455.25;;;24.66;58.98
29505;BME280;16452;54.174;12.092;2022-07-17T12:40:54;102449.13;;;24.75;58.37
29505;BME280;16452;54.174;12.092;2022-07-17T12:43:19;102448.09;;;25.08;58.46
29505;BME280;16452;54.174;12.092;2022-07-17T12:45:47;102452.06;;;24.93;59.15
29505;BME280;16452;54.174;12.092;2022-07-17T12:48:13;102456.47;;;24.83;58.33
29505;BME280;16452;54.174;12.092;2022-07-17T12:50:39;102456.72;;;24.91;57.98
29505;BME280;16452;54.174;12.092;2022-07-17T12:53:05;102447.25;;;25.08;57.63
29505;BME280;16452;54.174;12.092;2022-07-17T12:55:32;102443.94;;;25.15;56.88
29505;BME280;16452;54.174;12.092;2022-07-17T12:57:58;102447.38;;;24.85;58.92